Time;durP1;ratioP1;P1;durP2;ratioP2;P2;SDS_P1;SDS_P2;PMS_P1;PMS_P2;Temp;Humidity;BMP_temperature;BMP_pressure;BME280_temperature;BME280_humidity;BME280_pressure;Samples;Min_cycle;Max_cycle;Signal;HPM_P1;HPM_P2
2022/04/21 00:00:12;;;;;;;11.23;7.82;;;18.40;61.60;;;;;;5022173;28;20091;-60
2022/04/21 00:02:38;;;;;;;11.98;7.50;;;18.40;61.60;;;;;;5017042;28;20029;-60
2022/04/21 00:05:04;;;;;;;11.88;7.75;;;18.40;61.60;;;;;;5016195;28;20029;-60
2022/04/21 00:07:30;;;;;;;12.65;8.10;;;18.30;61.60;;;;;;5016507;28;20124;-60
2022/04/21 00:09:56;;;;;;;11.75;7.70;;;18.30;61.60;;;;;;5018862;28;20120;-60
2022/04/21 00:12:21;;;;;;;11.90;7.82;;;18.30;61.70;;;;;;5019176;28;20057;-60
2022/04/21 00:14:47;;;;;;;11.68;7.68;;;18.30;61.70;;;;;;5014743;28;20060;-60
2022/04/21 00:17:13;;;;;;;11.73;7.65;;;18.30;61.80;;;;;;5021947;28;20044;-60
2022/04/21 00:19:38;;;;;;;11.35;7.65;;;18.30;61.80;;;;;;5018392;28;20033;-60
2022/04/21 00:24:48;;;;;;;11.53;7.30;;;18.30;61.80;;;;;;5017474;28;20060;-60
2022/04/21 00:27:14;;;;;;;11.07;7.05;;;18.30;61.90;;;;;;5015777;28;20276;-60
2022/04/21 00:29:40;;;;;;;12.15;7.78;;;18.30;61.90;;;;;;5017520;28;20041;-60
2022/04/21 00:32:05;;;;;;;11.18;7.30;;;18.30;61.90;;;;;;5016008;28;20525;-60
2022/04/21 00:34:34;;;;;;;10.82;7.40;;;18.30;61.90;;;;;;5014974;28;20057;-60
2022/04/21 00:37:00;;;;;;;10.55;7.30;;;18.20;61.80;;;;;;5019870;28;20407;-60
2022/04/21 00:39:27;;;;;;;11.27;7.20;;;18.20;61.90;;;;;;5015741;28;20030;-60
2022/04/21 00:41:56;;;;;;;10.93;7.32;;;18.20;61.90;;;;;;5013563;28;20037;-61
2022/04/21 00:44:22;;;;;;;9.70;6.80;;;18.20;61.90;;;;;;5016232;28;20490;-60
2022/04/21 00:46:47;;;;;;;11.75;7.50;;;18.20;62.00;;;;;;5017658;28;20041;-60
2022/04/21 00:49:13;;;;;;;11.45;7.47;;;18.20;61.90;;;;;;5017846;28;20022;-60
2022/04/21 00:51:39;;;;;;;11.00;7.60;;;18.20;61.80;;;;;;5020672;28;20033;-60
2022/04/21 00:54:04;;;;;;;11.07;7.28;;;18.20;61.90;;;;;;5021974;28;20033;-60
2022/04/21 00:56:30;;;;;;;11.48;7.22;;;18.20;61.90;;;;;;5021316;28;20044;-60
2022/04/21 00:58:56;;;;;;;12.07;7.35;;;18.10;61.90;;;;;;5016342;28;20029;-60
2022/04/21 01:04:05;;;;;;;11.15;7.03;;;18.10;61.90;;;;;;5017216;28;20844;-60
2022/04/21 01:06:31;;;;;;;10.05;7.05;;;18.10;61.90;;;;;;5017722;28;20112;-61
2022/04/21 01:08:57;;;;;;;10.35;6.75;;;18.10;61.90;;;;;;5014370;28;20145;-60
2022/04/21 01:11:22;;;;;;;11.45;6.88;;;18.10;62.00;;;;;;5016409;28;20072;-61
2022/04/21 01:13:48;;;;;;;11.05;7.20;;;18.10;61.90;;;;;;5021375;28;20069;-60
2022/04/21 01:16:14;;;;;;;9.90;6.95;;;18.10;61.90;;;;;;5024045;28;20018;-60
2022/04/21 01:18:41;;;;;;;10.10;6.97;;;18.10;61.80;;;;;;5025556;28;20036;-60
2022/04/21 01:21:07;;;;;;;11.15;7.30;;;18.10;61.90;;;;;;5022735;28;20041;-60
2022/04/21 01:23:32;;;;;;;10.82;7.10;;;18.10;61.90;;;;;;5019329;28;20087;-60
2022/04/21 01:25:58;;;;;;;9.65;6.63;;;18.10;61.90;;;;;;5022562;28;20112;-60
2022/04/21 01:28:25;;;;;;;10.10;6.97;;;18.00;61.80;;;;;;5022977;28;20411;-59
2022/04/21 01:30:55;;;;;;;10.73;7.00;;;18.00;62.90;;;;;;5019042;28;20061;-60
2022/04/21 01:33:20;;;;;;;10.70;7.03;;;18.10;61.90;;;;;;5022616;28;20032;-60
2022/04/21 01:35:46;;;;;;;11.98;7.40;;;18.00;61.80;;;;;;5027083;28;20037;-61
2022/04/21 01:41:11;;;;;;;9.90;6.82;;;18.00;61.70;;;;;;5015709;28;20136;-61
2022/04/21 01:43:37;;;;;;;10.95;6.90;;;18.00;61.80;;;;;;5014868;28;20402;-60
2022/04/21 01:46:03;;;;;;;10.88;7.30;;;18.00;61.80;;;;;;5020449;28;20049;-60
2022/04/21 01:48:29;;;;;;;11.02;7.25;;;18.00;61.90;;;;;;5021170;28;20048;-60
2022/04/21 01:50:55;;;;;;;10.48;6.68;;;18.00;61.70;;;;;;5020509;28;20471;-60
2022/04/21 01:53:20;;;;;;;10.60;7.00;;;17.90;61.80;;;;;;5021676;28;20025;-61
2022/04/21 01:55:46;;;;;;;11.00;7.05;;;18.00;61.80;;;;;;5022188;28;20033;-60
2022/04/21 01:58:13;;;;;;;10.05;6.80;;;18.00;61.80;;;;;;5024122;28;20093;-61
2022/04/21 02:00:39;;;;;;;10.52;6.68;;;18.00;61.80;;;;;;5021446;28;20061;-60
2022/04/21 02:03:05;;;;;;;11.38;7.35;;;17.90;61.70;;;;;;5018497;28;20033;-60
2022/04/21 02:05:31;;;;;;;10.43;6.97;;;17.90;61.80;;;;;;5021044;28;20034;-60
2022/04/21 02:07:56;;;;;;;10.98;6.82;;;17.90;61.70;;;;;;5014249;28;20109;-61
2022/04/21 02:10:22;;;;;;;10.35;6.60;;;17.90;61.70;;;;;;5024183;28;20044;-60
2022/04/21 02:12:48;;;;;;;10.35;7.28;;;17.90;61.70;;;;;;5019894;28;20034;-60
2022/04/21 02:15:14;;;;;;;10.52;6.63;;;17.90;61.60;;;;;;5017851;28;20128;-61
2022/04/21 02:17:40;;;;;;;9.93;6.93;;;17.90;61.70;;;;;;5020589;28;20033;-61
2022/04/21 02:20:07;;;;;;;10.43;7.18;;;17.90;61.60;;;;;;5018814;28;20056;-60
2022/04/21 02:22:35;;;;;;;12.27;7.45;;;17.80;61.70;;;;;;5016520;28;20048;-60
2022/04/21 02:25:04;;;;;;;9.82;6.97;;;17.80;61.60;;;;;;5020531;28;20063;-60
2022/04/21 02:27:30;;;;;;;9.63;6.70;;;17.80;61.60;;;;;;5021007;28;20521;-60
2022/04/21 02:29:56;;;;;;;12.32;7.10;;;17.80;61.50;;;;;;5017090;28;20032;-60
2022/04/21 02:32:22;;;;;;;9.95;7.30;;;17.80;61.50;;;;;;5017699;28;20041;-60
2022/04/21 02:34:47;;;;;;;10.82;6.93;;;17.80;61.50;;;;;;5020762;28;20662;-60
2022/04/21 02:37:13;;;;;;;9.45;6.53;;;17.80;61.60;;;;;;5020220;28;20029;-60
2022/04/21 02:39:39;;;;;;;10.13;7.18;;;17.80;61.50;;;;;;5018098;28;20034;-60
2022/04/21 02:42:05;;;;;;;9.95;7.10;;;17.80;61.50;;;;;;5024604;28;20061;-61
2022/04/21 02:44:31;;;;;;;10.23;7.38;;;17.80;61.50;;;;;;5021681;28;20037;-60
2022/04/21 02:46:58;;;;;;;10.07;6.93;;;17.80;61.50;;;;;;5024813;28;20064;-60
2022/04/21 02:49:24;;;;;;;11.80;7.15;;;17.80;61.50;;;;;;5020485;28;20703;-59
2022/04/21 02:51:49;;;;;;;10.25;7.07;;;17.70;61.50;;;;;;5022521;28;20033;-59
2022/04/21 02:57:43;;;;;;;11.63;7.60;;;17.70;61.40;;;;;;5022929;28;20064;-59
2022/04/21 02:59:54;;;;;;;10.60;7.20;;;17.70;61.40;;;;;;5018037;28;20088;-59
2022/04/21 03:02:20;;;;;;;11.25;7.35;;;17.70;61.40;;;;;;5019844;28;20520;-59
2022/04/21 03:04:46;;;;;;;11.25;7.88;;;17.70;61.30;;;;;;5019814;28;20049;-59
2022/04/21 03:07:13;;;;;;;11.30;7.63;;;17.70;61.30;;;;;;5022041;28;20437;-59
2022/04/21 03:09:39;;;;;;;10.85;6.97;;;17.70;61.30;;;;;;5019265;28;20030;-59
2022/04/21 03:12:05;;;;;;;9.40;6.43;;;17.70;61.40;;;;;;5020173;28;20491;-59
2022/04/21 03:14:31;;;;;;;9.57;6.88;;;17.70;61.40;;;;;;5022128;28;20129;-60
2022/04/21 03:16:57;;;;;;;11.25;7.30;;;17.70;61.30;;;;;;5023738;28;20117;-59
2022/04/21 03:19:23;;;;;;;11.60;7.40;;;17.70;61.30;;;;;;5022813;28;20029;-59
2022/04/21 03:24:33;;;;;;;10.15;7.03;;;17.60;61.30;;;;;;5020214;28;20032;-59
2022/04/21 03:26:59;;;;;;;9.75;7.00;;;17.60;61.20;;;;;;5019407;28;20033;-59
2022/04/21 03:29:24;;;;;;;11.45;7.38;;;17.60;61.20;;;;;;5015930;28;20029;-59
2022/04/21 03:31:50;;;;;;;11.27;7.60;;;17.60;61.30;;;;;;5022752;28;20510;-59
2022/04/21 03:34:17;;;;;;;9.63;6.78;;;17.60;61.10;;;;;;5020478;28;20488;-59
2022/04/21 03:36:45;;;;;;;11.18;7.40;;;17.60;61.20;;;;;;5019893;28;20409;-59
2022/04/21 03:39:11;;;;;;;10.82;7.18;;;17.60;61.20;;;;;;5013317;28;20034;-59
2022/04/21 03:41:37;;;;;;;10.90;7.10;;;17.60;61.10;;;;;;5020123;28;20044;-59
2022/04/21 03:44:04;;;;;;;10.65;7.15;;;17.60;61.10;;;;;;5013940;28;20061;-59
2022/04/21 03:46:30;;;;;;;10.15;6.93;;;17.50;61.10;;;;;;5015083;28;20052;-59
2022/04/21 03:48:55;;;;;;;9.82;6.68;;;17.60;61.10;;;;;;5023230;28;20014;-59
2022/04/21 03:51:21;;;;;;;9.88;6.63;;;17.50;61.00;;;;;;5019961;28;20383;-59
2022/04/21 03:53:47;;;;;;;11.00;6.82;;;17.50;61.00;;;;;;5014567;28;20055;-60
2022/04/21 03:56:12;;;;;;;11.13;7.22;;;17.50;61.00;;;;;;5011568;28;20030;-59
2022/04/21 03:58:38;;;;;;;9.85;6.75;;;17.50;61.00;;;;;;5018648;28;20030;-60
2022/04/21 04:01:04;;;;;;;10.45;7.55;;;17.50;61.00;;;;;;5012973;28;20033;-59
2022/04/21 04:03:29;;;;;;;10.20;7.15;;;17.50;61.10;;;;;;5021608;28;20022;-59
2022/04/21 04:05:55;;;;;;;9.93;7.05;;;17.50;61.00;;;;;;5019189;28;20017;-59
2022/04/21 04:11:05;;;;;;;10.25;7.13;;;17.50;61.00;;;;;;5013723;28;20033;-59
2022/04/21 04:13:31;;;;;;;10.63;7.07;;;17.50;61.00;;;;;;5019387;28;20037;-59
2022/04/21 04:15:57;;;;;;;10.57;7.63;;;17.50;60.90;;;;;;5024444;28;20041;-59
2022/04/21 04:18:22;;;;;;;10.55;7.40;;;17.50;61.00;;;;;;5014739;28;20127;-59
2022/04/21 04:20:48;;;;;;;10.77;7.20;;;17.40;60.90;;;;;;5013636;28;20055;-59
2022/04/21 04:23:19;;;;;;;10.15;7.32;;;17.40;60.90;;;;;;5014166;28;20032;-59
2022/04/21 04:25:45;;;;;;;10.40;7.30;;;17.40;60.80;;;;;;5011570;28;20026;-59
2022/04/21 04:28:10;;;;;;;11.68;7.72;;;17.40;60.80;;;;;;5013201;28;20041;-59
2022/04/21 04:30:39;;;;;;;10.40;6.97;;;17.40;61.90;;;;;;5020190;28;20037;-60
2022/04/21 04:33:08;;;;;;;11.65;7.30;;;17.40;60.90;;;;;;5019419;28;20048;-59
2022/04/21 04:35:34;;;;;;;11.75;7.25;;;17.40;60.80;;;;;;5011617;28;20025;-59
2022/04/21 04:38:00;;;;;;;10.98;6.95;;;17.40;60.80;;;;;;5017923;28;20037;-59
2022/04/21 04:40:26;;;;;;;11.00;7.15;;;17.40;60.80;;;;;;5022072;28;20034;-60
2022/04/21 04:42:55;;;;;;;11.02;7.43;;;17.40;60.80;;;;;;5020283;28;20030;-60
2022/04/21 04:48:05;;;;;;;10.30;7.05;;;17.40;60.80;;;;;;5017864;28;20171;-59
2022/04/21 04:50:31;;;;;;;11.25;7.47;;;17.30;60.70;;;;;;5017117;28;20128;-59
2022/04/21 04:53:00;;;;;;;10.60;7.32;;;17.30;60.60;;;;;;5017683;28;20021;-59
2022/04/21 04:55:26;;;;;;;11.77;7.32;;;17.30;60.60;;;;;;5023041;28;20501;-59
2022/04/21 04:57:52;;;;;;;12.10;7.63;;;17.30;60.60;;;;;;5013230;28;20113;-59
2022/04/21 05:00:18;;;;;;;11.32;7.65;;;17.30;60.60;;;;;;5017913;28;20305;-59
2022/04/21 05:02:44;;;;;;;11.27;7.47;;;17.30;60.80;;;;;;5016981;28;20025;-59
2022/04/21 05:05:11;;;;;;;12.23;7.90;;;17.30;60.90;;;;;;5018482;28;20257;-60
2022/04/21 05:07:39;;;;;;;12.07;8.18;;;17.30;60.90;;;;;;5017879;28;20705;-60
2022/04/21 05:10:08;;;;;;;12.32;7.93;;;17.30;61.20;;;;;;5018310;28;20031;-60
2022/04/21 05:12:34;;;;;;;12.98;7.85;;;17.30;61.20;;;;;;5018947;28;20036;-60
2022/04/21 05:15:00;;;;;;;10.88;7.43;;;17.30;61.30;;;;;;5020453;28;20021;-60
2022/04/21 05:17:27;;;;;;;12.90;8.05;;;17.30;61.40;;;;;;5021958;28;20577;-60
2022/04/21 05:19:53;;;;;;;11.50;7.78;;;17.30;61.40;;;;;;5019186;28;20554;-60
2022/04/21 05:22:19;;;;;;;14.20;8.23;;;17.30;61.50;;;;;;5020475;28;20041;-60
2022/04/21 05:24:46;;;;;;;12.23;7.60;;;17.30;62.20;;;;;;5016816;28;20037;-60
2022/04/21 05:27:12;;;;;;;12.65;7.65;;;17.30;61.90;;;;;;5010509;28;20033;-60
2022/04/21 05:32:31;;;;;;;12.13;7.57;;;17.30;61.60;;;;;;5015253;28;20048;-60
2022/04/21 05:34:58;;;;;;;12.40;7.93;;;17.30;61.50;;;;;;5020841;28;20388;-60
2022/04/21 05:37:24;;;;;;;13.25;8.30;;;17.30;61.40;;;;;;5020708;28;20116;-60
2022/04/21 05:39:50;;;;;;;14.75;7.45;;;17.30;61.40;;;;;;5022895;28;20113;-60
2022/04/21 05:42:25;;;;;;;13.40;6.88;;;17.30;61.60;;;;;;5017937;28;20057;-60
2022/04/21 05:44:54;;;;;;;12.88;7.45;;;17.20;61.90;;;;;;5021526;28;20021;-60
2022/04/21 05:47:21;;;;;;;12.82;6.95;;;17.30;62.20;;;;;;5013756;28;20051;-60
2022/04/21 05:49:46;;;;;;;13.65;7.88;;;17.30;61.90;;;;;;5009318;28;20379;-59
2022/04/21 05:52:13;;;;;;;14.20;7.97;;;17.30;62.10;;;;;;5013279;28;20018;-60
2022/04/21 05:54:39;;;;;;;13.98;7.70;;;17.30;62.60;;;;;;5017206;28;20033;-60
2022/04/21 05:57:05;;;;;;;13.05;7.70;;;17.30;62.20;;;;;;5015747;28;20040;-60
2022/04/21 05:59:32;;;;;;;12.63;7.30;;;17.30;62.10;;;;;;5014110;28;20033;-59
2022/04/21 06:01:58;;;;;;;17.95;7.55;;;17.30;62.20;;;;;;5011773;28;20046;-60
2022/04/21 06:04:24;;;;;;;13.25;7.57;;;17.30;62.30;;;;;;5019472;28;20030;-60
2022/04/21 06:06:50;;;;;;;13.27;7.85;;;17.30;62.40;;;;;;5024789;28;20402;-62
2022/04/21 06:09:15;;;;;;;14.25;7.68;;;17.30;63.40;;;;;;5018291;28;20498;-59
2022/04/21 06:11:43;;;;;;;17.08;7.53;;;17.30;62.40;;;;;;5017166;28;20052;-60
2022/04/21 06:14:08;;;;;;;14.75;7.72;;;17.30;62.20;;;;;;5014053;28;20018;-60
2022/04/21 06:16:34;;;;;;;16.45;7.90;;;17.30;62.30;;;;;;5013351;28;20371;-60
2022/04/21 06:19:00;;;;;;;12.93;7.40;;;17.30;62.10;;;;;;5021707;28;20498;-60
2022/04/21 06:21:26;;;;;;;16.20;7.35;;;17.30;62.20;;;;;;5018403;28;20037;-60
2022/04/21 06:23:51;;;;;;;13.90;7.30;;;17.30;62.10;;;;;;5022864;28;20024;-60
2022/04/21 06:26:17;;;;;;;12.70;7.22;;;17.30;62.00;;;;;;5017052;28;20036;-60
2022/04/21 06:28:43;;;;;;;14.07;7.72;;;17.30;62.10;;;;;;5022367;28;20034;-60
2022/04/21 06:31:09;;;;;;;13.00;6.90;;;17.30;62.20;;;;;;5022362;28;20028;-60
2022/04/21 06:33:35;;;;;;;12.65;6.80;;;17.30;62.00;;;;;;5030362;28;20486;-60
2022/04/21 06:36:02;;;;;;;14.48;7.65;;;17.30;61.90;;;;;;5023780;28;20043;-60
2022/04/21 06:38:27;;;;;;;12.85;7.47;;;17.30;62.00;;;;;;5025917;28;20098;-60
2022/04/21 06:40:53;;;;;;;11.32;6.88;;;17.30;62.00;;;;;;5023357;28;20049;-60
2022/04/21 06:48:48;;;;;;;13.32;7.18;;;17.30;61.90;;;;;;5014682;28;20040;-60
2022/04/21 06:51:15;;;;;;;13.23;7.18;;;17.30;61.70;;;;;;5013660;28;20029;-60
2022/04/21 06:53:42;;;;;;;14.07;7.10;;;17.30;61.70;;;;;;5026083;28;20495;-62
2022/04/21 06:56:08;;;;;;;12.93;6.22;;;17.30;61.70;;;;;;5014151;28;20036;-60
2022/04/21 06:58:34;;;;;;;14.18;7.25;;;17.30;61.70;;;;;;5017902;28;20030;-60
2022/04/21 07:01:01;;;;;;;13.63;7.25;;;17.30;61.70;;;;;;5022801;28;20069;-60
2022/04/21 07:03:27;;;;;;;15.13;7.00;;;17.30;61.90;;;;;;5016192;28;20541;-60
2022/04/21 07:05:55;;;;;;;13.40;7.53;;;17.30;61.70;;;;;;5018795;28;20056;-60
2022/04/21 07:08:21;;;;;;;13.10;6.93;;;17.30;61.90;;;;;;5016816;28;20621;-59
2022/04/21 07:10:46;;;;;;;13.60;6.93;;;17.30;61.70;;;;;;5021187;28;20453;-60
2022/04/21 07:13:12;;;;;;;11.32;6.85;;;17.30;61.90;;;;;;5020936;28;20033;-60
2022/04/21 07:15:40;;;;;;;12.20;6.68;;;17.30;61.90;;;;;;5017370;28;20033;-60
2022/04/21 07:18:06;;;;;;;9.90;6.18;;;17.40;62.00;;;;;;5026180;28;20035;-60
2022/04/21 07:20:32;;;;;;;13.60;6.80;;;17.30;61.70;;;;;;5020163;28;20407;-60
2022/04/21 07:22:57;;;;;;;12.75;6.47;;;17.40;61.80;;;;;;5020317;28;20036;-60
2022/04/21 07:25:23;;;;;;;11.00;6.78;;;17.30;61.70;;;;;;5020769;28;20056;-60
2022/04/21 07:27:49;;;;;;;12.52;7.15;;;17.40;61.80;;;;;;5020345;28;20040;-60
2022/04/21 07:30:15;;;;;;;12.02;6.82;;;17.30;61.70;;;;;;5020432;28;20014;-60
2022/04/21 07:32:40;;;;;;;13.05;6.63;;;17.40;61.60;;;;;;5022407;28;20509;-60
2022/04/21 07:35:07;;;;;;;12.98;6.82;;;17.40;61.80;;;;;;5048350;28;20083;-60
2022/04/21 07:37:33;;;;;;;12.63;6.47;;;17.40;61.70;;;;;;5024625;28;20414;-59
2022/04/21 07:39:59;;;;;;;11.38;6.60;;;17.40;61.50;;;;;;5027622;28;20033;-59
2022/04/21 07:42:24;;;;;;;12.18;6.55;;;17.40;61.50;;;;;;5019571;28;20054;-60
2022/04/21 07:44:51;;;;;;;12.00;6.93;;;17.40;61.50;;;;;;5022642;28;20048;-59
2022/04/21 07:47:17;;;;;;;12.88;7.45;;;17.40;61.40;;;;;;5016658;28;20071;-60
2022/04/21 07:49:48;;;;;;;11.25;7.00;;;17.40;61.50;;;;;;5023613;28;20454;-60
2022/04/21 07:55:16;;;;;;;11.20;6.63;;;17.40;61.30;;;;;;5027414;28;20037;-60
2022/04/21 07:57:42;;;;;;;12.65;6.90;;;17.40;61.30;;;;;;5019841;28;20486;-60
2022/04/21 08:00:08;;;;;;;12.02;6.50;;;17.50;61.30;;;;;;5023107;28;20279;-60
2022/04/21 08:02:34;;;;;;;11.73;6.40;;;17.50;62.30;;;;;;5019380;28;20087;-60
2022/04/21 08:05:00;;;;;;;10.52;6.43;;;17.50;61.10;;;;;;5012188;28;20057;-60
2022/04/21 08:07:25;;;;;;;12.15;6.68;;;17.50;61.20;;;;;;5021426;28;20049;-59
2022/04/21 08:09:51;;;;;;;10.60;6.50;;;17.50;60.90;;;;;;5014494;28;20044;-60
2022/04/21 08:12:17;;;;;;;12.27;7.03;;;17.50;61.10;;;;;;5019157;28;20033;-60
2022/04/21 08:14:42;;;;;;;10.60;6.45;;;17.50;61.10;;;;;;5020658;28;20163;-60
2022/04/21 08:17:08;;;;;;;9.82;6.53;;;17.50;61.00;;;;;;5016806;28;20037;-60
2022/04/21 08:19:34;;;;;;;15.68;6.80;;;17.50;61.00;;;;;;5030412;28;20115;-59
2022/04/21 08:21:59;;;;;;;12.57;6.45;;;17.60;61.10;;;;;;5023342;28;20045;-61
2022/04/21 08:32:41;;;;;;;12.00;6.60;;;17.60;60.80;;;;;;5018478;28;20112;-60
2022/04/21 08:35:09;;;;;;;10.02;6.40;;;17.50;60.70;;;;;;5013937;28;20505;-60
2022/04/21 08:37:35;;;;;;;10.93;6.28;;;17.60;60.90;;;;;;5014217;28;20032;-59
2022/04/21 08:40:02;;;;;;;11.35;6.32;;;17.60;60.80;;;;;;5018275;28;20360;-59
2022/04/21 08:42:29;;;;;;;10.35;6.13;;;17.50;60.50;;;;;;5029436;28;20104;-60
2022/04/21 08:44:58;;;;;;;10.10;6.00;;;17.60;60.70;;;;;;5021314;28;20031;-60
2022/04/21 08:47:27;;;;;;;12.00;6.85;;;17.60;60.50;;;;;;5028474;28;20045;-59
2022/04/21 08:49:57;;;;;;;11.10;6.55;;;17.60;60.60;;;;;;5010422;28;20573;-59
2022/04/21 08:52:23;;;;;;;11.80;6.20;;;17.60;60.50;;;;;;5023859;28;20038;-60
2022/04/21 08:54:49;;;;;;;9.75;6.32;;;17.50;60.50;;;;;;5017851;28;20096;-60
2022/04/21 08:57:14;;;;;;;10.23;6.15;;;17.60;60.30;;;;;;5015969;28;20443;-59
2022/04/21 08:59:40;;;;;;;10.13;5.95;;;17.60;60.50;;;;;;5025785;28;20033;-59
2022/04/21 09:02:06;;;;;;;10.63;6.30;;;17.60;60.50;;;;;;5019113;28;20108;-60
2022/04/21 09:04:32;;;;;;;11.95;6.32;;;17.60;60.30;;;;;;5015975;28;20036;-60
2022/04/21 09:07:13;;;;;;;10.60;5.88;;;17.60;60.50;;;;;;5023163;28;20435;-59
2022/04/21 09:09:39;;;;;;;11.80;6.50;;;17.60;60.60;;;;;;5029883;28;20032;-60
2022/04/21 09:12:05;;;;;;;9.73;5.97;;;17.60;60.50;;;;;;5014291;28;20018;-59
2022/04/21 09:14:31;;;;;;;9.85;5.90;;;17.60;60.40;;;;;;5019649;28;20059;-60
2022/04/21 09:17:03;;;;;;;10.52;6.20;;;17.60;61.60;;;;;;5011611;28;20482;-60
2022/04/21 09:19:28;;;;;;;9.63;5.72;;;17.70;60.50;;;;;;5000484;28;20526;-59
2022/04/21 09:21:56;;;;;;;10.40;5.90;;;17.60;59.50;;;;;;5020010;28;20113;-60
2022/04/21 09:24:22;;;;;;;9.85;6.20;;;17.60;60.40;;;;;;5025364;28;20040;-60
2022/04/21 09:26:48;;;;;;;11.55;6.20;;;17.70;61.70;;;;;;5019117;28;20060;-60
2022/04/21 09:29:23;;;;;;;9.60;6.05;;;17.60;60.20;;;;;;5013030;28;20049;-60
2022/04/21 09:31:52;;;;;;;;;;;17.60;60.20;;;;;;5015909;28;20525;-60
2022/04/21 09:34:18;;;;;;;9.23;5.45;;;17.60;60.50;;;;;;5022857;28;19913;-59
2022/04/21 09:36:43;;;;;;;10.02;6.03;;;17.60;60.40;;;;;;5024354;28;20030;-60
2022/04/21 09:39:10;;;;;;;9.55;6.03;;;17.60;60.30;;;;;;5029017;28;20036;-60
2022/04/21 09:41:36;;;;;;;9.90;5.32;;;17.60;60.40;;;;;;5022201;28;20041;-60
2022/04/21 09:46:07;;;;;;;10.65;6.25;;;17.60;60.30;;;;;;5020125;28;20037;-60
2022/04/21 09:46:56;;;;;;;9.77;5.60;;;17.60;60.30;;;;;;5023608;28;20119;-60
2022/04/21 09:49:38;;;;;;;9.05;5.68;;;17.70;60.20;;;;;;5009590;28;20091;-60
2022/04/21 09:52:04;;;;;;;9.52;5.57;;;17.70;60.40;;;;;;5026800;28;20323;-59
2022/04/21 09:54:30;;;;;;;10.93;5.80;;;17.60;60.10;;;;;;5022281;28;20099;-60
2022/04/21 09:56:56;;;;;;;9.05;5.40;;;17.70;60.50;;;;;;5020044;28;20030;-60
2022/04/21 09:59:22;;;;;;;9.50;5.32;;;17.70;60.10;;;;;;5022196;28;20024;-60
2022/04/21 10:01:50;;;;;;;8.48;5.35;;;17.70;60.10;;;;;;5016442;28;20052;-60
2022/04/21 10:04:18;;;;;;;10.05;5.57;;;17.70;60.10;;;;;;5028848;28;20022;-60
2022/04/21 10:06:44;;;;;;;9.23;5.30;;;17.70;60.20;;;;;;5017907;28;20034;-60
2022/04/21 10:09:10;;;;;;;8.40;5.20;;;17.70;60.10;;;;;;5024818;28;20029;-60
2022/04/21 10:11:40;;;;;;;8.18;4.95;;;17.70;60.20;;;;;;5027427;28;20024;-60
2022/04/21 10:14:06;;;;;;;9.57;5.53;;;17.70;60.10;;;;;;5016064;28;20025;-60
2022/04/21 10:16:32;;;;;;;8.25;4.80;;;17.70;60.10;;;;;;5015987;28;20483;-60
2022/04/21 10:18:58;;;;;;;8.50;5.20;;;17.70;60.10;;;;;;5031231;28;20029;-59
2022/04/21 10:21:37;;;;;;;8.98;5.20;;;17.70;60.10;;;;;;5025698;28;20096;-60
2022/04/21 10:24:04;;;;;;;8.43;5.07;;;17.70;60.10;;;;;;5019724;28;20363;-60
2022/04/21 10:26:40;;;;;;;8.48;5.18;;;17.70;60.10;;;;;;5016919;28;20030;-60
2022/04/21 10:29:11;;;;;;;7.88;4.65;;;17.70;60.10;;;;;;5015747;28;20026;-60
2022/04/21 10:31:45;;;;;;;9.13;5.57;;;17.70;61.10;;;;;;5020954;28;20038;-60
2022/04/21 10:34:10;;;;;;;8.15;4.97;;;17.70;60.10;;;;;;5021823;28;20178;-60
2022/04/21 10:36:41;;;;;;;9.00;5.03;;;17.80;60.20;;;;;;5018120;28;20150;-60
2022/04/21 10:39:16;;;;;;;8.82;5.32;;;17.80;60.20;;;;;;5017017;28;20439;-60
2022/04/21 10:41:42;;;;;;;;;;;17.80;61.20;;;;;;5015426;28;20042;-60
2022/04/21 10:44:15;;;;;;;8.98;5.30;;;17.80;59.90;;;;;;5017159;28;19915;-60
2022/04/21 10:46:40;;;;;;;8.45;5.20;;;17.80;60.20;;;;;;5017347;28;20523;-60
2022/04/21 10:49:06;;;;;;;8.95;5.38;;;17.80;60.10;;;;;;5033534;28;20037;-60
2022/04/21 10:57:31;;;;;;;9.07;5.25;;;17.80;60.00;;;;;;5020663;28;20033;-60
2022/04/21 11:00:05;;;;;;;9.65;5.32;;;17.80;60.00;;;;;;5024724;28;20078;-60
2022/04/21 11:02:41;;;;;;;9.57;5.53;;;17.80;59.80;;;;;;5017796;28;20064;-60
2022/04/21 11:05:22;;;;;;;9.38;5.05;;;17.80;59.90;;;;;;5023026;28;20030;-59
2022/04/21 11:07:51;;;;;;;9.23;5.32;;;17.80;59.80;;;;;;5022648;28;20021;-60
2022/04/21 11:10:38;;;;;;;8.75;5.00;;;17.90;59.90;;;;;;5020686;28;20029;-60
2022/04/21 11:13:12;;;;;;;10.32;5.40;;;17.80;59.90;;;;;;5020374;28;20494;-60
2022/04/21 11:15:49;;;;;;;8.18;5.10;;;17.90;59.80;;;;;;5020702;28;20018;-60
2022/04/21 11:18:18;;;;;;;8.70;5.20;;;17.90;59.80;;;;;;5024123;28;20026;-59
2022/04/21 11:20:47;;;;;;;10.02;5.60;;;17.90;59.90;;;;;;5021808;28;20371;-60
2022/04/21 11:23:29;;;;;;;8.85;5.20;;;17.90;59.90;;;;;;5017606;28;20022;-59
2022/04/21 11:26:02;;;;;;;9.32;5.22;;;17.90;59.80;;;;;;5023760;28;20022;-60
2022/04/21 11:28:28;;;;;;;8.07;5.03;;;17.90;59.80;;;;;;5014621;28;20112;-60
2022/04/21 11:30:59;;;;;;;8.23;5.13;;;17.90;59.80;;;;;;5018369;28;20160;-60
2022/04/21 11:33:25;;;;;;;8.80;5.50;;;17.90;59.80;;;;;;5023138;28;20022;-60
2022/04/21 11:36:06;;;;;;;9.30;5.70;;;17.90;59.80;;;;;;5018506;28;20375;-60
2022/04/21 11:38:33;;;;;;;8.35;5.20;;;17.90;59.70;;;;;;5019425;28;20030;-60
2022/04/21 11:41:05;;;;;;;8.52;5.18;;;17.90;59.60;;;;;;5012302;28;20410;-60
2022/04/21 11:43:31;;;;;;;8.70;5.03;;;17.90;59.60;;;;;;5014225;28;20486;-60
2022/04/21 11:46:12;;;;;;;9.65;5.47;;;17.90;59.50;;;;;;5020868;28;20479;-60
2022/04/21 11:48:40;;;;;;;8.40;5.05;;;18.00;59.60;;;;;;5026592;28;20044;-60
2022/04/21 11:51:06;;;;;;;8.55;4.93;;;18.00;59.60;;;;;;5025832;28;20401;-60
2022/04/21 11:53:40;;;;;;;9.02;5.25;;;18.00;59.60;;;;;;5017065;28;20030;-60
2022/04/21 11:56:07;;;;;;;9.32;5.18;;;18.10;59.50;;;;;;5014506;28;20033;-60
2022/04/21 11:58:41;;;;;;;8.60;5.20;;;18.00;59.50;;;;;;5015531;28;20475;-60
2022/04/21 12:06:56;;;;;;;9.75;5.22;;;18.10;59.30;;;;;;5020193;28;20084;-60
2022/04/21 12:09:26;;;;;;;8.93;5.20;;;18.20;59.30;;;;;;5017760;28;20034;-60
2022/04/21 12:11:56;;;;;;;8.32;4.97;;;18.20;59.30;;;;;;5020288;28;20475;-60
2022/04/21 12:14:22;;;;;;;8.52;5.50;;;18.20;59.20;;;;;;5020230;28;20035;-60
2022/04/21 12:16:53;;;;;;;9.13;5.40;;;18.20;59.20;;;;;;5019908;28;20029;-60
2022/04/21 12:19:41;;;;;;;8.82;5.68;;;18.20;59.20;;;;;;5020464;28;20037;-60
2022/04/21 12:22:16;;;;;;;8.77;5.18;;;18.30;59.10;;;;;;5031151;28;20033;-60
2022/04/21 12:24:48;;;;;;;9.23;5.38;;;18.30;59.00;;;;;;5023544;28;20080;-60
2022/04/21 12:27:18;;;;;;;9.27;5.25;;;18.40;59.00;;;;;;5022217;28;20021;-60
2022/04/21 12:29:57;;;;;;;8.77;5.03;;;18.40;59.00;;;;;;5020131;28;20040;-60
2022/04/21 12:32:33;;;;;;;8.32;5.20;;;18.40;58.90;;;;;;5016728;28;20029;-60
2022/04/21 12:35:01;;;;;;;9.10;4.85;;;18.40;58.80;;;;;;5017123;28;20449;-60
2022/04/21 12:37:31;;;;;;;8.35;5.05;;;18.40;58.80;;;;;;5022367;28;20038;-60
2022/04/21 12:40:07;;;;;;;8.30;5.05;;;18.40;58.80;;;;;;5018296;28;20014;-60
2022/04/21 12:42:33;;;;;;;8.45;5.00;;;18.40;58.80;;;;;;5018531;28;20095;-60
2022/04/21 12:44:59;;;;;;;8.90;5.05;;;18.40;58.80;;;;;;5027326;28;20017;-60
2022/04/21 12:47:25;;;;;;;7.70;4.63;;;18.40;58.80;;;;;;5020939;28;20073;-60
2022/04/21 12:49:53;;;;;;;8.52;5.15;;;18.40;58.70;;;;;;5021162;28;20341;-60
2022/04/21 12:52:31;;;;;;;8.85;5.25;;;18.50;58.80;;;;;;5017483;28;20041;-60
2022/04/21 12:54:57;;;;;;;8.93;5.00;;;18.50;58.70;;;;;;5023220;28;20083;-60
2022/04/21 12:57:23;;;;;;;9.75;5.07;;;18.50;58.50;;;;;;5020405;28;20493;-60
2022/04/21 12:59:50;;;;;;;8.30;4.95;;;18.60;58.60;;;;;;5019605;28;20044;-60
2022/04/21 13:02:18;;;;;;;8.95;5.00;;;18.60;58.60;;;;;;5014687;28;20044;-60
2022/04/21 13:04:43;;;;;;;7.38;4.32;;;18.60;58.60;;;;;;5012284;28;20512;-60
2022/04/21 13:07:09;;;;;;;8.40;4.95;;;18.60;58.50;;;;;;5012530;28;20030;-60
2022/04/21 13:09:35;;;;;;;7.20;4.18;;;18.60;58.50;;;;;;5021201;28;20056;-60
2022/04/21 13:12:00;;;;;;;8.45;4.57;;;18.60;58.40;;;;;;5020407;28;20358;-60
2022/04/21 13:14:26;;;;;;;8.43;5.07;;;18.60;58.40;;;;;;5017878;28;20509;-60
2022/04/21 13:16:52;;;;;;;8.95;4.80;;;18.70;58.40;;;;;;5017055;28;20112;-60
2022/04/21 13:19:17;;;;;;;7.88;4.72;;;18.70;58.40;;;;;;5031819;28;20363;-60
2022/04/21 13:21:52;;;;;;;7.57;4.53;;;18.70;58.30;;;;;;5022461;28;20288;-60
2022/04/21 13:24:19;;;;;;;8.02;4.80;;;18.80;58.30;;;;;;5036287;28;20021;-60
2022/04/21 13:26:45;;;;;;;7.15;4.80;;;18.80;58.30;;;;;;5023144;28;20030;-60
2022/04/21 13:29:11;;;;;;;8.10;4.50;;;18.80;58.20;;;;;;5023985;28;20025;-60
2022/04/21 13:34:20;;;;;;;8.07;4.82;;;18.90;58.10;;;;;;5019754;28;20029;-60